createdAt,value
2017-11-08T00:00:06.015Z,100238.17
2017-11-08T00:03:08.110Z,100240.32
2017-11-08T00:06:09.429Z,100235.97
2017-11-08T00:09:11.535Z,100252.17
2017-11-08T00:12:12.878Z,100238.95
2017-11-08T00:15:14.202Z,100241.19
2017-11-08T00:18:15.534Z,100243.73
2017-11-08T00:21:17.650Z,100234.55
2017-11-08T00:24:22.945Z,100243.30
2017-11-08T00:27:25.049Z,100244.66
2017-11-08T00:30:26.405Z,100255.55
2017-11-08T00:33:27.742Z,100256.41
2017-11-08T00:36:29.067Z,100255.38
2017-11-08T00:39:31.146Z,100244.89
2017-11-08T00:42:33.199Z,100247.05
2017-11-08T00:45:35.317Z,100244.02
2017-11-08T00:48:36.676Z,100239.12
2017-11-08T00:51:37.981Z,100237.77
2017-11-08T00:54:39.334Z,100243.46
2017-11-08T00:57:46.696Z,100242.59
2017-11-08T01:00:51.906Z,100244.84
2017-11-08T01:03:53.265Z,100243.46
2017-11-08T01:06:54.611Z,100246.50
2017-11-08T01:09:55.943Z,100239.02
2017-11-08T01:12:59.000Z,100252.64
2017-11-08T01:16:01.102Z,100251.33
2017-11-08T01:19:02.435Z,100248.68
2017-11-08T01:22:03.729Z,100236.00
2017-11-08T01:25:05.064Z,100233.74
2017-11-08T01:28:06.386Z,100224.08
2017-11-08T01:31:07.750Z,100220.08
2017-11-08T01:34:09.093Z,100220.56
2017-11-08T01:37:15.263Z,100227.55
2017-11-08T01:40:18.437Z,100227.56
2017-11-08T01:43:19.801Z,100227.13
2017-11-08T01:46:21.167Z,100229.72
2017-11-08T01:49:22.510Z,100232.78
2017-11-08T01:52:23.866Z,100240.69
2017-11-08T01:55:26.022Z,100232.29
2017-11-08T01:58:27.382Z,100233.12
2017-11-08T02:01:28.726Z,100241.38
2017-11-08T02:04:30.057Z,100251.12
2017-11-08T02:07:31.421Z,100252.83
2017-11-08T02:10:32.846Z,100257.77
2017-11-08T02:13:34.954Z,100249.75
2017-11-08T02:16:36.342Z,100251.05
2017-11-08T02:19:37.674Z,100242.72
2017-11-08T02:22:39.104Z,100242.71
2017-11-08T02:25:40.460Z,100251.92
2017-11-08T02:28:41.793Z,100269.52
2017-11-08T02:31:43.161Z,100265.88
2017-11-08T02:34:44.562Z,100238.70
2017-11-08T02:37:46.690Z,100222.73
2017-11-08T02:40:48.101Z,100227.25
2017-11-08T02:43:49.511Z,100216.70
2017-11-08T02:46:56.900Z,100208.75
2017-11-08T02:49:58.254Z,100206.08
2017-11-08T02:52:59.613Z,100197.28
2017-11-08T02:56:01.707Z,100201.20
2017-11-08T02:59:03.066Z,100193.34
2017-11-08T03:02:04.437Z,100191.20
2017-11-08T03:05:11.900Z,100198.61
2017-11-08T03:08:13.208Z,100201.70
2017-11-08T03:11:14.617Z,100198.62
2017-11-08T03:14:15.977Z,100195.48
2017-11-08T03:17:17.331Z,100206.14
2017-11-08T03:20:18.662Z,100198.69
2017-11-08T03:23:19.970Z,100199.04
2017-11-08T03:26:21.320Z,100203.08
2017-11-08T03:29:22.661Z,100192.08
2017-11-08T03:32:23.958Z,100199.92
2017-11-08T03:35:25.301Z,100206.59
2017-11-08T03:38:26.691Z,100208.23
2017-11-08T03:41:28.030Z,100205.20
2017-11-08T03:44:29.379Z,100197.67
2017-11-08T03:47:30.827Z,100199.50
2017-11-08T03:50:32.133Z,100198.62
2017-11-08T03:53:34.218Z,100199.44
2017-11-08T03:56:35.568Z,100196.41
2017-11-08T03:59:37.107Z,100193.33
2017-11-08T04:02:39.144Z,100188.20
2017-11-08T04:05:40.480Z,100189.37
2017-11-08T04:08:41.825Z,100205.59
2017-11-08T04:11:43.147Z,100201.69
2017-11-08T04:14:44.506Z,100199.00
2017-11-08T04:17:45.875Z,100200.83
2017-11-08T04:20:47.244Z,100209.91
2017-11-08T04:23:48.583Z,100199.36
2017-11-08T04:26:49.946Z,100203.81
2017-11-08T04:29:51.311Z,100219.23
2017-11-08T04:32:52.629Z,100210.41
2017-11-08T04:35:53.944Z,100230.52
2017-11-08T04:38:55.288Z,100230.15
2017-11-08T04:41:56.582Z,100200.23
2017-11-08T04:44:57.931Z,100204.13
2017-11-08T04:47:59.310Z,100200.22
2017-11-08T04:51:00.642Z,100199.34
2017-11-08T04:54:01.998Z,100212.48
2017-11-08T04:57:03.377Z,100223.92
2017-11-08T05:00:05.452Z,100222.61
2017-11-08T05:03:06.898Z,100222.22
2017-11-08T05:06:08.938Z,100212.19
2017-11-08T05:09:10.254Z,100206.89
2017-11-08T05:12:11.619Z,100209.91
2017-11-08T05:15:12.934Z,100195.54
2017-11-08T05:18:14.274Z,100193.35
2017-11-08T05:21:15.606Z,100194.66
2017-11-08T05:24:17.651Z,100175.67
2017-11-08T05:27:19.018Z,100185.30
2017-11-08T05:30:21.435Z,100180.95
2017-11-08T05:33:22.784Z,100191.45
2017-11-08T05:36:24.090Z,100184.03
2017-11-08T05:39:25.423Z,100198.91
2017-11-08T05:42:26.729Z,100204.58
2017-11-08T05:45:28.107Z,100194.97
2017-11-08T05:48:29.464Z,100202.44
2017-11-08T05:51:30.868Z,100203.26
2017-11-08T05:54:32.203Z,100203.26
2017-11-08T05:57:34.280Z,100212.42
2017-11-08T06:00:35.642Z,100216.50
2017-11-08T06:03:36.968Z,100228.37
2017-11-08T06:06:39.043Z,100227.48
2017-11-08T06:09:41.129Z,100232.62
2017-11-08T06:12:42.502Z,100218.72
2017-11-08T06:15:43.830Z,100221.34
2017-11-08T06:18:45.184Z,100222.16
2017-11-08T06:21:46.585Z,100237.09
2017-11-08T06:24:47.913Z,100225.75
2017-11-08T06:27:49.250Z,100234.97
2017-11-08T06:30:50.610Z,100235.48
2017-11-08T06:33:52.690Z,100241.11
2017-11-08T06:36:54.063Z,100247.64
2017-11-08T06:39:56.181Z,100246.78
2017-11-08T06:42:57.510Z,100244.63
2017-11-08T06:45:58.870Z,100234.03
2017-11-08T06:49:00.361Z,100243.69
2017-11-08T06:52:01.681Z,100252.92
2017-11-08T06:58:11.033Z,100252.12
2017-11-08T07:01:12.401Z,100262.61
2017-11-08T07:04:13.785Z,100269.94
2017-11-08T07:07:15.125Z,100266.95
2017-11-08T07:10:16.675Z,100279.27
2017-11-08T07:13:18.007Z,100280.13
2017-11-08T07:16:19.399Z,100286.66
2017-11-08T07:19:21.458Z,100292.75
2017-11-08T07:22:23.274Z,100288.42
2017-11-08T07:25:24.599Z,100289.60
2017-11-08T07:28:25.895Z,100283.42
2017-11-08T07:31:27.218Z,100279.86
2017-11-08T07:34:28.522Z,100285.95
2017-11-08T07:37:29.837Z,100293.03
2017-11-08T07:40:31.185Z,100284.59
2017-11-08T07:43:32.534Z,100287.63
2017-11-08T07:46:33.833Z,100287.34
2017-11-08T07:49:35.868Z,100296.49
2017-11-08T07:52:37.185Z,100289.08
2017-11-08T07:55:44.634Z,100287.28
2017-11-08T07:58:46.863Z,100292.16
2017-11-08T08:01:48.189Z,100295.56
2017-11-08T08:04:49.491Z,100310.56
2017-11-08T08:07:50.785Z,100318.87
2017-11-08T08:10:52.119Z,100336.46
2017-11-08T08:13:58.560Z,100333.70
2017-11-08T08:16:59.867Z,100345.44
2017-11-08T08:20:01.179Z,100343.42
2017-11-08T08:23:03.211Z,100348.20
2017-11-08T08:26:05.527Z,100348.20
2017-11-08T08:29:06.886Z,100355.63
2017-11-08T08:32:08.224Z,100351.73
2017-11-08T08:35:10.299Z,100346.28
2017-11-08T08:38:11.620Z,100340.55
2017-11-08T08:41:12.993Z,100341.39
2017-11-08T08:44:15.007Z,100335.02
2017-11-08T08:47:16.318Z,100339.77
2017-11-08T08:50:17.619Z,100342.26
2017-11-08T08:53:18.981Z,100342.78
2017-11-08T08:56:20.307Z,100351.94
2017-11-08T08:59:21.654Z,100344.45
2017-11-08T09:02:23.950Z,100360.24
2017-11-08T09:05:25.297Z,100362.83
2017-11-08T09:08:26.653Z,100370.72
2017-11-08T09:11:27.970Z,100369.58
2017-11-08T09:14:29.325Z,100363.26
2017-11-08T09:17:30.656Z,100349.98
2017-11-08T09:20:32.032Z,100352.99
2017-11-08T09:23:33.425Z,100354.47
2017-11-08T09:26:35.514Z,100350.55
2017-11-08T09:29:38.984Z,100350.29
2017-11-08T09:32:41.106Z,100352.98
2017-11-08T09:35:42.524Z,100353.34
2017-11-08T09:38:43.849Z,100347.70
2017-11-08T09:41:46.043Z,100350.92
2017-11-08T09:44:47.409Z,100355.18
2017-11-08T09:47:48.779Z,100346.24
2017-11-08T09:50:50.181Z,100360.64
2017-11-08T09:53:52.184Z,100351.31
2017-11-08T09:56:53.535Z,100355.75
2017-11-08T09:59:54.835Z,100371.93
2017-11-08T10:02:56.883Z,100365.47
2017-11-08T10:05:58.204Z,100371.80
2017-11-08T10:09:02.403Z,100367.47
2017-11-08T10:12:08.727Z,100370.00
2017-11-08T10:15:10.073Z,100372.27
2017-11-08T10:18:13.494Z,100374.34
2017-11-08T10:21:15.522Z,100370.29
2017-11-08T10:24:16.864Z,100376.98
2017-11-08T10:27:18.176Z,100378.73
2017-11-08T10:30:19.514Z,100382.86
2017-11-08T10:33:21.556Z,100391.01
2017-11-08T10:36:22.870Z,100387.70
2017-11-08T10:39:24.203Z,100382.13
2017-11-08T10:45:27.574Z,100382.11
2017-11-08T10:48:32.776Z,100385.19
2017-11-08T10:51:34.169Z,100373.73
2017-11-08T10:54:35.541Z,100380.72
2017-11-08T10:57:36.868Z,100381.50
2017-11-08T11:00:42.233Z,100361.77
2017-11-08T11:03:43.602Z,100376.73
2017-11-08T11:06:44.991Z,100365.20
2017-11-08T11:09:48.038Z,100372.61
2017-11-08T11:12:49.388Z,100375.34
2017-11-08T11:15:52.519Z,100387.81
2017-11-08T11:18:54.593Z,100371.03
2017-11-08T11:22:01.498Z,100377.23
2017-11-08T11:25:02.805Z,100378.48
2017-11-08T11:28:04.131Z,100383.14
2017-11-08T11:31:05.480Z,100385.52
2017-11-08T11:34:06.841Z,100383.41
2017-11-08T11:37:08.245Z,100387.29
2017-11-08T11:40:09.639Z,100386.27
2017-11-08T11:43:11.019Z,100388.27
2017-11-08T11:46:12.347Z,100393.42
2017-11-08T11:49:13.704Z,100387.55
2017-11-08T11:52:15.104Z,100376.63
2017-11-08T11:55:16.460Z,100380.73
2017-11-08T11:58:17.850Z,100373.53
2017-11-08T12:01:19.188Z,100370.89
2017-11-08T12:04:21.064Z,100384.23
2017-11-08T12:07:22.443Z,100384.27
2017-11-08T12:10:26.591Z,100379.22
2017-11-08T12:13:28.009Z,100381.70
2017-11-08T12:16:29.426Z,100386.37
2017-11-08T12:19:30.831Z,100393.23
2017-11-08T12:22:32.920Z,100389.60
2017-11-08T12:25:34.473Z,100388.70
2017-11-08T12:28:35.817Z,100387.14
2017-11-08T12:31:37.195Z,100393.56
2017-11-08T12:34:40.032Z,100388.58
2017-11-08T12:37:42.747Z,100376.41
2017-11-08T12:40:44.430Z,100376.98
2017-11-08T12:43:47.763Z,100377.86
2017-11-08T12:46:49.145Z,100371.09
2017-11-08T12:49:51.752Z,100355.18
2017-11-08T12:52:54.220Z,100359.59
2017-11-08T12:55:56.192Z,100360.86
2017-11-08T12:58:57.718Z,100353.86
2017-11-08T13:02:01.803Z,100356.77
2017-11-08T13:05:04.108Z,100352.91
2017-11-08T13:08:08.175Z,100360.66
2017-11-08T13:11:15.958Z,100354.02
2017-11-08T13:14:17.363Z,100356.59
2017-11-08T13:17:18.723Z,100363.73
2017-11-08T13:20:21.064Z,100372.84
2017-11-08T13:23:22.456Z,100376.99
2017-11-08T13:26:24.348Z,100379.83
2017-11-08T13:29:26.760Z,100385.52
2017-11-08T13:32:28.581Z,100381.02
2017-11-08T13:35:29.992Z,100384.55
2017-11-08T13:38:32.077Z,100380.08
2017-11-08T13:41:35.400Z,100388.05
2017-11-08T13:44:36.924Z,100388.90
2017-11-08T13:47:38.405Z,100404.23
2017-11-08T13:50:39.841Z,100398.16
2017-11-08T13:53:42.609Z,100401.73
2017-11-08T13:56:45.792Z,100399.91
2017-11-08T13:59:47.723Z,100402.52
2017-11-08T14:02:50.010Z,100407.83
2017-11-08T14:05:52.986Z,100403.52
2017-11-08T14:08:56.153Z,100425.36
2017-11-08T14:11:57.566Z,100418.22
2017-11-08T14:15:00.066Z,100424.41
2017-11-08T14:18:03.687Z,100425.80
2017-11-08T14:21:05.163Z,100425.39
2017-11-08T14:24:06.533Z,100427.58
2017-11-08T14:27:07.871Z,100430.69
2017-11-08T14:30:15.861Z,100421.50
2017-11-08T14:33:18.481Z,100420.70
2017-11-08T14:36:21.298Z,100436.00
2017-11-08T14:39:25.334Z,100420.63
2017-11-08T14:42:28.704Z,100423.26
2017-11-08T14:45:31.366Z,100436.09
2017-11-08T14:48:32.777Z,100437.84
2017-11-08T14:51:36.165Z,100432.98
2017-11-08T14:54:39.349Z,100439.95
2017-11-08T14:57:40.710Z,100435.09
2017-11-08T15:00:42.054Z,100436.87
2017-11-08T15:03:43.401Z,100439.14
2017-11-08T15:06:44.711Z,100435.62
2017-11-08T15:09:46.025Z,100450.53
2017-11-08T15:12:47.326Z,100456.25
2017-11-08T15:15:49.455Z,100459.36
2017-11-08T15:18:50.789Z,100463.68
2017-11-08T15:21:52.072Z,100463.42
2017-11-08T15:24:53.468Z,100458.55
2017-11-08T15:27:55.074Z,100455.84
2017-11-08T15:30:56.425Z,100470.22
2017-11-08T15:33:57.931Z,100470.38
2017-11-08T15:36:59.324Z,100465.16
2017-11-08T15:40:00.716Z,100460.33
2017-11-08T15:43:02.854Z,100468.26
2017-11-08T15:46:06.279Z,100461.20
2017-11-08T15:49:14.448Z,100472.67
2017-11-08T15:52:15.797Z,100462.11
2017-11-08T15:55:17.174Z,100463.78
2017-11-08T15:58:18.541Z,100475.16
2017-11-08T16:01:23.725Z,100481.68
2017-11-08T16:04:25.932Z,100486.52
2017-11-08T16:07:27.359Z,100490.20
2017-11-08T16:10:28.735Z,100482.83
2017-11-08T16:13:30.265Z,100484.08
2017-11-08T16:16:32.456Z,100495.52
2017-11-08T16:19:33.797Z,100511.47
2017-11-08T16:22:35.191Z,100492.09
2017-11-08T16:25:37.285Z,100502.58
2017-11-08T16:28:38.631Z,100499.41
2017-11-08T16:31:39.992Z,100503.39
2017-11-08T16:34:41.355Z,100506.91
2017-11-08T16:37:42.718Z,100504.34
2017-11-08T16:40:44.071Z,100496.95
2017-11-08T16:43:45.423Z,100494.27
2017-11-08T16:46:46.766Z,100495.19
2017-11-08T16:49:48.178Z,100497.38
2017-11-08T16:52:49.730Z,100503.19
2017-11-08T16:55:51.039Z,100490.79
2017-11-08T16:58:52.453Z,100501.81
2017-11-08T17:01:53.832Z,100505.34
2017-11-08T17:04:55.213Z,100507.38
2017-11-08T17:07:57.319Z,100521.09
2017-11-08T17:10:58.654Z,100522.43
2017-11-08T17:13:59.972Z,100516.70
2017-11-08T17:17:01.290Z,100526.43
2017-11-08T17:20:02.743Z,100533.02
2017-11-08T17:23:04.070Z,100533.48
2017-11-08T17:26:05.392Z,100549.16
2017-11-08T17:29:07.491Z,100541.40
2017-11-08T17:32:08.796Z,100554.47
2017-11-08T17:35:10.915Z,100555.26
2017-11-08T17:38:13.111Z,100560.20
2017-11-08T17:41:14.514Z,100557.11
2017-11-08T17:44:16.433Z,100559.84
2017-11-08T17:47:18.447Z,100562.11
2017-11-08T17:50:20.224Z,100552.06
2017-11-08T17:53:21.627Z,100573.97
2017-11-08T17:56:23.738Z,100570.08
2017-11-08T17:59:25.140Z,100570.08
2017-11-08T18:02:27.268Z,100574.12
2017-11-08T18:05:28.727Z,100575.87
2017-11-08T18:08:30.526Z,100581.11
2017-11-08T18:11:32.674Z,100575.39
2017-11-08T18:14:34.139Z,100578.83
2017-11-08T18:17:36.307Z,100577.48
2017-11-08T18:20:37.660Z,100584.09
2017-11-08T18:23:39.218Z,100576.55
2017-11-08T18:26:41.398Z,100589.35
2017-11-08T18:29:43.535Z,100585.00
2017-11-08T18:32:44.974Z,100586.34
2017-11-08T18:35:46.416Z,100592.50
2017-11-08T18:38:47.757Z,100585.46
2017-11-08T18:41:49.204Z,100587.66
2017-11-08T18:44:50.616Z,100599.54
2017-11-08T18:47:52.799Z,100595.52
2017-11-08T18:50:54.942Z,100604.41
2017-11-08T18:53:56.315Z,100602.71
2017-11-08T18:56:58.410Z,100612.38
2017-11-08T18:59:59.881Z,100621.19
2017-11-08T19:03:01.316Z,100617.63
2017-11-08T19:06:02.683Z,100612.87
2017-11-08T19:09:04.122Z,100625.06
2017-11-08T19:12:05.540Z,100626.47
2017-11-08T19:15:07.708Z,100627.78
2017-11-08T19:18:09.851Z,100632.65
2017-11-08T19:21:11.287Z,100629.12
2017-11-08T19:24:12.728Z,100630.01
2017-11-08T19:27:14.137Z,100626.41
2017-11-08T19:30:16.295Z,100629.98
2017-11-08T19:33:17.690Z,100624.27
2017-11-08T19:36:19.166Z,100634.25
2017-11-08T19:39:20.555Z,100630.28
2017-11-08T19:42:21.948Z,100631.18
2017-11-08T19:45:23.410Z,100630.80
2017-11-08T19:48:24.919Z,100632.58
2017-11-08T19:51:27.852Z,100645.36
2017-11-08T19:54:29.310Z,100631.75
2017-11-08T19:57:30.794Z,100638.38
2017-11-08T20:00:32.228Z,100644.55
2017-11-08T20:03:33.761Z,100641.91
2017-11-08T20:06:35.215Z,100643.30
2017-11-08T20:09:36.744Z,100645.44
2017-11-08T20:12:38.179Z,100639.28
2017-11-08T20:15:40.405Z,100638.89
2017-11-08T20:18:41.865Z,100632.66
2017-11-08T20:21:43.308Z,100646.26
2017-11-08T20:24:44.809Z,100643.62
2017-11-08T20:27:46.612Z,100638.44
2017-11-08T20:30:48.359Z,100638.31
2017-11-08T20:33:49.771Z,100640.16
2017-11-08T20:36:51.177Z,100651.98
2017-11-08T20:39:52.533Z,100638.30
2017-11-08T20:42:53.949Z,100648.91
2017-11-08T20:45:56.150Z,100637.95
2017-11-08T20:48:57.515Z,100637.50
2017-11-08T20:51:58.840Z,100632.28
2017-11-08T20:55:00.182Z,100640.09
2017-11-08T20:58:01.603Z,100629.56
2017-11-08T21:01:03.757Z,100630.89
2017-11-08T21:04:05.248Z,100635.23
2017-11-08T21:07:07.956Z,100640.16
2017-11-08T21:10:10.866Z,100644.56
2017-11-08T21:13:13.722Z,100646.31
2017-11-08T21:16:16.650Z,100641.56
2017-11-08T21:19:19.455Z,100642.89
2017-11-08T21:22:21.563Z,100645.89
2017-11-08T21:25:23.184Z,100650.75
2017-11-08T21:28:24.592Z,100654.28
2017-11-08T21:31:25.952Z,100649.41
2017-11-08T21:34:27.433Z,100647.19
2017-11-08T21:37:29.383Z,100633.09
2017-11-08T21:40:31.389Z,100645.44
2017-11-08T21:43:32.839Z,100643.75
2017-11-08T21:46:34.916Z,100652.70
2017-11-08T21:49:36.809Z,100659.05
2017-11-08T21:52:39.909Z,100658.18
2017-11-08T21:55:41.406Z,100650.79
2017-11-08T21:58:43.736Z,100641.92
2017-11-08T22:01:46.035Z,100648.17
2017-11-08T22:04:47.575Z,100649.41
2017-11-08T22:07:50.214Z,100656.47
2017-11-08T22:10:52.602Z,100652.50
2017-11-08T22:13:54.790Z,100655.66
2017-11-08T22:16:56.155Z,100653.95
2017-11-08T22:19:57.522Z,100660.14
2017-11-08T22:23:00.179Z,100662.70
2017-11-08T22:26:02.352Z,100662.70
2017-11-08T22:29:04.477Z,100659.20
2017-11-08T22:32:05.893Z,100653.47
2017-11-08T22:35:08.371Z,100654.36
2017-11-08T22:38:09.805Z,100649.06
2017-11-08T22:41:11.286Z,100648.59
2017-11-08T22:44:13.446Z,100654.26
2017-11-08T22:47:14.837Z,100649.49
2017-11-08T22:50:16.216Z,100652.52
2017-11-08T22:53:17.749Z,100636.25
2017-11-08T22:56:19.062Z,100638.97
2017-11-08T22:59:21.244Z,100645.54
2017-11-08T23:02:22.926Z,100638.52
2017-11-08T23:05:24.289Z,100630.59
2017-11-08T23:08:26.425Z,100630.53
2017-11-08T23:11:27.753Z,100634.94
2017-11-08T23:14:29.916Z,100636.25
2017-11-08T23:17:32.057Z,100638.38
2017-11-08T23:20:33.486Z,100642.44
2017-11-08T23:23:34.903Z,100635.03
2017-11-08T23:26:37.081Z,100637.14
2017-11-08T23:29:38.841Z,100644.58
2017-11-08T23:32:40.209Z,100636.71
2017-11-08T23:35:41.585Z,100640.23
2017-11-08T23:38:43.696Z,100631.86
2017-11-08T23:41:45.816Z,100631.48
2017-11-08T23:44:47.176Z,100630.66
2017-11-08T23:47:48.537Z,100635.52
2017-11-08T23:50:49.952Z,100636.34
2017-11-08T23:53:51.361Z,100636.83
2017-11-08T23:56:53.550Z,100648.74
